createdAt,value
2022-10-26T00:01:22.122Z,101333.28
2022-10-26T00:03:49.950Z,101331.59
2022-10-26T00:06:19.661Z,101336.19
2022-10-26T00:08:49.648Z,101333.75
2022-10-26T00:11:17.445Z,101319.78
2022-10-26T00:13:46.473Z,101321.88
2022-10-26T00:16:16.529Z,101317.63
2022-10-26T00:18:44.554Z,101312.59
2022-10-26T00:21:13.037Z,101318.84
2022-10-26T00:23:40.715Z,101311.88
2022-10-26T00:26:10.254Z,101307.91
2022-10-26T00:28:37.943Z,101314.66
2022-10-26T00:31:07.971Z,101321.00
2022-10-26T00:33:36.371Z,101312.94
2022-10-26T00:36:04.085Z,101318.13
2022-10-26T00:38:31.739Z,101317.03
2022-10-26T00:40:59.422Z,101314.97
2022-10-26T00:43:40.976Z,101307.78
2022-10-26T00:46:15.001Z,101306.69
2022-10-26T00:48:45.738Z,101300.53
2022-10-26T00:51:18.523Z,101301.13
2022-10-26T00:53:46.201Z,101310.78
2022-10-26T00:56:14.073Z,101295.59
2022-10-26T00:58:43.559Z,101300.75
2022-10-26T01:01:11.696Z,101301.47
2022-10-26T01:03:39.882Z,101297.13
2022-10-26T01:06:08.192Z,101298.13
2022-10-26T01:08:35.987Z,101291.63
2022-10-26T01:11:04.537Z,101296.91
2022-10-26T01:13:35.801Z,101284.84
2022-10-26T01:16:30.411Z,101285.56
2022-10-26T01:19:07.170Z,101283.66
2022-10-26T01:21:45.393Z,101281.00
2022-10-26T01:24:24.119Z,101268.81
2022-10-26T01:27:05.640Z,101269.44
2022-10-26T01:30:04.392Z,101273.78
2022-10-26T01:32:35.721Z,101267.75
2022-10-26T01:35:07.793Z,101265.81
2022-10-26T01:37:40.409Z,101255.22
2022-10-26T01:40:11.906Z,101257.88
2022-10-26T01:42:43.660Z,101258.69
2022-10-26T01:45:13.242Z,101250.75
2022-10-26T01:47:42.288Z,101250.75
2022-10-26T01:50:11.404Z,101238.13
2022-10-26T01:52:39.327Z,101260.66
2022-10-26T01:55:28.628Z,101249.91
2022-10-26T01:58:04.229Z,101236.06
2022-10-26T02:00:36.975Z,101243.66
2022-10-26T02:03:13.823Z,101241.00
2022-10-26T02:05:55.268Z,101238.34
2022-10-26T02:08:29.515Z,101239.06
2022-10-26T02:11:05.195Z,101221.00
2022-10-26T02:13:36.704Z,101224.97
2022-10-26T02:16:15.733Z,101215.59
2022-10-26T02:18:48.518Z,101219.53
2022-10-26T02:21:19.025Z,101220.38
2022-10-26T02:23:49.152Z,101213.25
2022-10-26T02:26:19.297Z,101219.53
2022-10-26T02:28:49.692Z,101200.53
2022-10-26T02:31:18.611Z,101219.44
2022-10-26T02:36:25.787Z,101216.78
2022-10-26T02:38:54.288Z,101203.38
2022-10-26T02:41:23.170Z,101205.19
2022-10-26T02:43:54.777Z,101199.06
2022-10-26T02:46:24.745Z,101195.44
2022-10-26T02:48:53.915Z,101191.09
2022-10-26T02:51:27.844Z,101198.78
2022-10-26T02:53:59.153Z,101196.13
2022-10-26T02:56:29.737Z,101188.31
2022-10-26T02:59:01.234Z,101190.13
2022-10-26T03:01:29.680Z,101196.13
2022-10-26T03:03:59.872Z,101190.84
2022-10-26T03:06:27.720Z,101202.41
2022-10-26T03:08:55.399Z,101208.56
2022-10-26T03:11:23.052Z,101201.44
2022-10-26T03:13:50.745Z,101209.25
2022-10-26T03:16:19.380Z,101208.28
2022-10-26T03:18:46.994Z,101209.13
2022-10-26T03:21:16.120Z,101203.72
2022-10-26T03:23:43.741Z,101207.22
2022-10-26T03:26:11.390Z,101204.44
2022-10-26T03:28:39.010Z,101206.94
2022-10-26T03:31:07.268Z,101199.00
2022-10-26T03:33:34.979Z,101202.50
2022-10-26T03:36:02.722Z,101194.53
2022-10-26T03:38:31.829Z,101200.69
2022-10-26T03:40:59.434Z,101197.91
2022-10-26T03:43:27.067Z,101201.50
2022-10-26T03:45:54.705Z,101191.75
2022-10-26T03:48:22.297Z,101183.78
2022-10-26T03:50:49.943Z,101176.09
2022-10-26T03:53:17.623Z,101181.88
2022-10-26T03:55:46.825Z,101163.31
2022-10-26T03:58:14.516Z,101155.38
2022-10-26T04:00:42.206Z,101154.63
2022-10-26T04:03:09.870Z,101160.91
2022-10-26T04:05:37.496Z,101164.25
2022-10-26T04:08:05.276Z,101159.09
2022-10-26T04:10:33.019Z,101159.94
2022-10-26T04:13:02.301Z,101159.94
2022-10-26T04:15:30.205Z,101151.97
2022-10-26T04:17:58.284Z,101151.97
2022-10-26T04:20:26.327Z,101152.81
2022-10-26T04:23:01.072Z,101155.47
2022-10-26T04:25:31.843Z,101160.78
2022-10-26T04:28:02.844Z,101158.03
2022-10-26T04:30:31.106Z,101160.53
2022-10-26T04:32:58.738Z,101160.41
2022-10-26T04:35:26.399Z,101156.91
2022-10-26T04:37:58.315Z,101152.44
2022-10-26T04:40:26.003Z,101162.78
2022-10-26T04:42:53.788Z,101160.97
2022-10-26T04:45:23.015Z,101162.69
2022-10-26T04:48:00.618Z,101154.72
2022-10-26T04:50:28.733Z,101159.91
2022-10-26T04:52:56.375Z,101153.63
2022-10-26T04:55:24.084Z,101160.59
2022-10-26T04:57:54.768Z,101155.56
2022-10-26T05:00:26.750Z,101165.91
2022-10-26T05:03:00.077Z,101165.91
2022-10-26T05:05:27.860Z,101155.28
2022-10-26T05:07:55.901Z,101160.59
2022-10-26T05:10:23.531Z,101159.75
2022-10-26T05:12:52.292Z,101163.94
2022-10-26T05:15:20.165Z,101170.94
2022-10-26T05:17:49.404Z,101165.63
2022-10-26T05:20:17.216Z,101173.47
2022-10-26T05:22:44.850Z,101177.94
2022-10-26T05:25:12.461Z,101174.31
2022-10-26T05:27:40.155Z,101176.00
2022-10-26T05:30:09.006Z,101171.53
2022-10-26T05:32:36.663Z,101170.69
2022-10-26T05:35:06.562Z,101172.38
2022-10-26T05:37:34.247Z,101169.44
2022-10-26T05:40:01.902Z,101176.47
2022-10-26T05:42:29.659Z,101172.00
2022-10-26T05:44:57.270Z,101163.06
2022-10-26T05:47:24.928Z,101164.16
2022-10-26T05:49:52.527Z,101165.97
2022-10-26T05:52:21.590Z,101168.50
2022-10-26T05:54:49.312Z,101156.19
2022-10-26T05:57:17.490Z,101169.34
2022-10-26T05:59:45.756Z,101165.97
2022-10-26T06:02:20.451Z,101160.66
2022-10-26T06:04:48.945Z,101161.50
2022-10-26T06:07:18.367Z,101171.41
2022-10-26T06:09:48.722Z,101169.59
2022-10-26T06:12:19.604Z,101171.53
2022-10-26T06:14:48.359Z,101181.16
2022-10-26T06:17:28.829Z,101167.34
2022-10-26T06:20:08.656Z,101174.06
2022-10-26T06:22:43.864Z,101179.50
2022-10-26T06:25:22.476Z,101179.63
2022-10-26T06:27:55.825Z,101173.59
2022-10-26T06:30:23.988Z,101181.53
2022-10-26T06:33:01.169Z,101186.00
2022-10-26T06:35:37.711Z,101183.50
2022-10-26T06:38:09.352Z,101178.19
2022-10-26T06:40:40.693Z,101181.81
2022-10-26T06:43:13.401Z,101181.81
2022-10-26T06:45:42.456Z,101185.44
2022-10-26T06:48:11.659Z,101178.00
2022-10-26T06:50:44.209Z,101188.22
2022-10-26T06:53:20.083Z,101194.38
2022-10-26T06:55:51.053Z,101197.84
2022-10-26T06:58:20.205Z,101203.03
2022-10-26T07:00:49.725Z,101198.56
2022-10-26T07:03:17.831Z,101191.56
2022-10-26T07:05:45.898Z,101195.06
2022-10-26T07:08:13.706Z,101194.81
2022-10-26T07:10:42.272Z,101197.44
2022-10-26T07:13:11.874Z,101193.13
2022-10-26T07:15:40.571Z,101209.50
2022-10-26T07:18:09.081Z,101201.56
2022-10-26T07:20:38.400Z,101194.69
2022-10-26T07:23:08.028Z,101192.63
2022-10-26T07:25:38.960Z,101203.94
2022-10-26T07:28:07.517Z,101203.94
2022-10-26T07:30:36.641Z,101210.94
2022-10-26T07:33:06.787Z,101190.81
2022-10-26T07:35:34.628Z,101195.59
2022-10-26T07:38:02.955Z,101202.44
2022-10-26T07:40:30.748Z,101191.84
2022-10-26T07:42:59.218Z,101197.75
2022-10-26T07:45:27.687Z,101185.31
2022-10-26T07:47:56.767Z,101197.34
2022-10-26T07:50:25.023Z,101197.09
2022-10-26T07:52:52.887Z,101187.19
2022-10-26T07:55:20.800Z,101190.44
2022-10-26T07:57:51.048Z,101187.66
2022-10-26T08:00:22.496Z,101181.94
2022-10-26T08:02:50.192Z,101179.88
2022-10-26T08:05:19.350Z,101182.38
2022-10-26T08:07:47.687Z,101169.56
2022-10-26T08:10:16.573Z,101181.44
2022-10-26T08:12:44.892Z,101183.88
2022-10-26T08:15:12.833Z,101187.94
2022-10-26T08:17:40.478Z,101189.81
2022-10-26T08:20:09.129Z,101192.91
2022-10-26T08:22:38.153Z,101189.72
2022-10-26T08:25:06.510Z,101185.81
2022-10-26T08:27:34.170Z,101199.28
2022-10-26T08:30:01.875Z,101195.81
2022-10-26T08:32:29.558Z,101190.94
2022-10-26T08:34:57.205Z,101193.19
2022-10-26T08:37:25.151Z,101202.16
2022-10-26T08:39:55.870Z,101202.31
2022-10-26T08:42:30.357Z,101198.97
2022-10-26T08:45:00.595Z,101205.72
2022-10-26T08:47:30.024Z,101200.44
2022-10-26T08:50:01.018Z,101208.59
2022-10-26T08:52:32.834Z,101216.56
2022-10-26T08:55:04.273Z,101217.53
2022-10-26T08:57:36.497Z,101216.97
2022-10-26T09:00:06.209Z,101221.44
2022-10-26T09:02:33.992Z,101217.94
2022-10-26T09:05:01.851Z,101227.88
2022-10-26T09:07:38.466Z,101227.84
2022-10-26T09:10:17.908Z,101219.44
2022-10-26T09:12:49.844Z,101209.31
2022-10-26T09:15:25.652Z,101217.81
2022-10-26T09:17:59.664Z,101207.31
2022-10-26T09:20:42.017Z,101214.16
2022-10-26T09:23:20.792Z,101217.94
2022-10-26T09:25:56.283Z,101231.53
2022-10-26T09:28:24.095Z,101236.41
2022-10-26T09:30:58.804Z,101235.41
2022-10-26T09:33:26.892Z,101242.44
2022-10-26T09:36:00.243Z,101251.38
2022-10-26T09:38:30.868Z,101245.09
2022-10-26T09:41:04.063Z,101252.94
2022-10-26T09:43:37.277Z,101252.22
2022-10-26T09:46:05.001Z,101257.06
2022-10-26T09:48:36.567Z,101252.00
2022-10-26T09:51:04.954Z,101248.75
2022-10-26T09:53:32.745Z,101255.00
2022-10-26T09:56:06.301Z,101254.59
2022-10-26T09:58:37.271Z,101255.94
2022-10-26T10:01:05.134Z,101251.28
2022-10-26T10:03:33.460Z,101259.69
2022-10-26T10:06:17.480Z,101265.28
2022-10-26T10:08:46.517Z,101272.84
2022-10-26T10:11:16.441Z,101270.94
2022-10-26T10:13:45.410Z,101275.53
2022-10-26T10:16:21.058Z,101263.13
2022-10-26T10:18:54.475Z,101267.53
2022-10-26T10:21:22.571Z,101268.63
2022-10-26T10:23:53.306Z,101283.88
2022-10-26T10:26:22.309Z,101287.94
2022-10-26T10:28:58.294Z,101292.09
2022-10-26T10:31:29.618Z,101281.50
2022-10-26T10:33:57.252Z,101280.28
2022-10-26T10:36:29.313Z,101279.28
2022-10-26T10:38:57.534Z,101271.31
2022-10-26T10:41:29.941Z,101273.22
2022-10-26T10:44:07.261Z,101285.78
2022-10-26T10:46:35.217Z,101278.16
2022-10-26T10:49:04.670Z,101272.09
2022-10-26T10:51:37.773Z,101273.84
2022-10-26T10:54:06.295Z,101282.94
2022-10-26T10:56:42.070Z,101286.97
2022-10-26T10:59:21.075Z,101277.91
2022-10-26T11:01:51.213Z,101272.56
2022-10-26T11:04:37.346Z,101282.09
2022-10-26T11:07:06.374Z,101281.63
2022-10-26T11:09:37.500Z,101300.00
2022-10-26T11:12:11.128Z,101286.97
2022-10-26T11:14:43.289Z,101287.81
2022-10-26T11:17:18.006Z,101305.69
2022-10-26T11:19:49.573Z,101318.72
2022-10-26T11:22:22.343Z,101311.59
2022-10-26T11:24:51.716Z,101307.28
2022-10-26T11:27:25.117Z,101301.84
2022-10-26T11:29:56.207Z,101301.19
2022-10-26T11:32:25.434Z,101314.63
2022-10-26T11:34:56.901Z,101300.25
2022-10-26T11:37:29.014Z,101316.50
2022-10-26T11:40:03.834Z,101320.69
2022-10-26T11:42:37.526Z,101322.50
2022-10-26T11:45:11.467Z,101324.66
2022-10-26T11:47:42.897Z,101328.66
2022-10-26T11:50:17.622Z,101332.34
2022-10-26T11:52:49.450Z,101326.28
2022-10-26T11:55:18.347Z,101326.63
2022-10-26T11:57:48.005Z,101342.03
2022-10-26T12:00:18.170Z,101334.00
2022-10-26T12:02:49.660Z,101341.41
2022-10-26T12:05:24.539Z,101335.34
2022-10-26T12:07:54.647Z,101344.06
2022-10-26T12:10:31.142Z,101350.41
2022-10-26T12:13:05.870Z,101360.44
2022-10-26T12:16:01.761Z,101357.59
2022-10-26T12:18:50.374Z,101364.44
2022-10-26T12:21:18.268Z,101366.75
2022-10-26T12:23:56.182Z,101363.38
2022-10-26T12:26:54.499Z,101368.91
2022-10-26T12:29:38.114Z,101365.38
2022-10-26T12:32:29.077Z,101374.09
2022-10-26T12:35:01.899Z,101375.44
2022-10-26T12:37:37.866Z,101375.44
2022-10-26T12:40:40.726Z,101375.44
2022-10-26T12:43:36.043Z,101372.59
2022-10-26T12:46:43.362Z,101379.31
2022-10-26T12:49:58.749Z,101383.19
2022-10-26T12:52:34.152Z,101397.75
2022-10-26T12:55:25.059Z,101398.63
2022-10-26T12:57:59.971Z,101399.59
2022-10-26T13:00:28.711Z,101398.28
2022-10-26T13:03:08.035Z,101396.28
2022-10-26T13:05:58.683Z,101406.31
2022-10-26T13:08:28.601Z,101405.94
2022-10-26T13:11:04.682Z,101415.31
2022-10-26T13:13:33.378Z,101412.78
2022-10-26T13:16:01.857Z,101400.72
2022-10-26T13:18:30.676Z,101399.56
2022-10-26T13:21:11.560Z,101416.66
2022-10-26T13:23:42.007Z,101418.31
2022-10-26T13:26:12.595Z,101409.31
2022-10-26T13:28:51.250Z,101398.63
2022-10-26T13:31:55.704Z,101406.66
2022-10-26T13:34:24.454Z,101408.00
2022-10-26T13:36:55.175Z,101401.19
2022-10-26T13:39:27.471Z,101402.00
2022-10-26T13:41:55.751Z,101407.03
2022-10-26T13:44:26.967Z,101417.44
2022-10-26T13:46:59.302Z,101407.06
2022-10-26T13:49:31.466Z,101414.81
2022-10-26T13:52:02.542Z,101401.28
2022-10-26T13:54:36.572Z,101417.69
2022-10-26T13:57:14.008Z,101419.22
2022-10-26T13:59:44.695Z,101418.53
2022-10-26T14:02:18.544Z,101421.88
2022-10-26T14:04:49.774Z,101429.59
2022-10-26T14:07:22.795Z,101439.63
2022-10-26T14:09:57.513Z,101423.22
2022-10-26T14:12:26.086Z,101431.94
2022-10-26T14:14:54.900Z,101431.25
2022-10-26T14:17:25.432Z,101442.66
2022-10-26T14:19:53.754Z,101431.25
2022-10-26T14:22:23.888Z,101429.75
2022-10-26T14:24:53.072Z,101430.59
2022-10-26T14:27:23.995Z,101432.59
2022-10-26T14:32:39.939Z,101444.47
2022-10-26T14:35:13.161Z,101440.78
2022-10-26T14:37:45.285Z,101429.72
2022-10-26T14:40:17.344Z,101439.94
2022-10-26T14:42:50.548Z,101452.34
2022-10-26T14:45:47.237Z,101453.47
2022-10-26T14:48:22.697Z,101461.28
2022-10-26T14:51:07.806Z,101472.13
2022-10-26T14:53:38.139Z,101467.28
2022-10-26T14:56:07.237Z,101478.97
2022-10-26T14:58:36.974Z,101478.44
2022-10-26T15:01:27.516Z,101483.28
2022-10-26T15:03:58.401Z,101485.41
2022-10-26T15:06:38.227Z,101489.41
2022-10-26T15:09:06.870Z,101494.94
2022-10-26T15:11:35.815Z,101487.03
2022-10-26T15:14:04.915Z,101492.72
2022-10-26T15:16:35.648Z,101509.09
2022-10-26T15:19:10.985Z,101505.53
2022-10-26T15:21:41.091Z,101507.88
2022-10-26T15:24:33.151Z,101500.06
2022-10-26T15:27:05.366Z,101530.25
2022-10-26T15:29:42.825Z,101533.06
2022-10-26T15:34:14.570Z,101529.03
2022-10-26T15:36:43.562Z,101531.16
2022-10-26T15:39:11.568Z,101538.50
2022-10-26T15:41:45.893Z,101538.16
2022-10-26T15:44:16.122Z,101547.84
2022-10-26T15:46:44.109Z,101540.28
2022-10-26T15:49:18.720Z,101540.28
2022-10-26T15:51:47.583Z,101555.47
2022-10-26T15:54:15.833Z,101557.47
2022-10-26T15:56:44.736Z,101549.75
2022-10-26T15:59:15.496Z,101558.91
2022-10-26T16:01:43.233Z,101554.84
2022-10-26T16:04:12.176Z,101556.84
2022-10-26T16:06:42.888Z,101563.34
2022-10-26T16:09:14.287Z,101563.63
2022-10-26T16:11:41.965Z,101562.28
2022-10-26T16:14:10.079Z,101569.59
2022-10-26T16:16:38.976Z,101569.06
2022-10-26T16:19:29.283Z,101568.50
2022-10-26T16:21:55.766Z,101573.44
2022-10-26T16:24:23.616Z,101568.69
2022-10-26T16:26:51.382Z,101582.75
2022-10-26T16:29:19.423Z,101579.69
2022-10-26T16:31:47.126Z,101586.19
2022-10-26T16:34:15.170Z,101585.78
2022-10-26T16:36:42.834Z,101590.44
2022-10-26T16:39:13.181Z,101595.91
2022-10-26T16:41:40.858Z,101608.72
2022-10-26T16:44:08.557Z,101624.19
2022-10-26T16:46:36.234Z,101614.81
2022-10-26T16:49:03.874Z,101615.94
2022-10-26T16:51:31.807Z,101613.56
2022-10-26T16:53:59.461Z,101619.19
2022-10-26T16:56:30.282Z,101609.94
2022-10-26T16:58:58.489Z,101610.38
2022-10-26T17:01:26.607Z,101613.91
2022-10-26T17:03:54.629Z,101630.19
2022-10-26T17:06:22.695Z,101630.34
2022-10-26T17:08:50.334Z,101625.44
2022-10-26T17:11:19.640Z,101632.47
2022-10-26T17:13:49.203Z,101651.16
2022-10-26T17:16:20.716Z,101643.41
2022-10-26T17:18:48.914Z,101645.41
2022-10-26T17:21:17.661Z,101649.06
2022-10-26T17:23:45.325Z,101655.50
2022-10-26T17:26:14.641Z,101653.28
2022-10-26T17:28:42.485Z,101673.09
2022-10-26T17:31:13.503Z,101681.09
2022-10-26T17:33:42.751Z,101679.28
2022-10-26T17:36:11.926Z,101675.91
2022-10-26T17:38:40.608Z,101689.78
2022-10-26T17:41:10.087Z,101687.13
2022-10-26T17:43:39.334Z,101697.50
2022-10-26T17:46:08.106Z,101700.19
2022-10-26T17:48:37.316Z,101700.31
2022-10-26T17:51:07.121Z,101701.59
2022-10-26T17:53:34.751Z,101711.28
2022-10-26T17:56:02.992Z,101714.78
2022-10-26T17:58:30.678Z,101703.28
2022-10-26T18:01:01.519Z,101709.44
2022-10-26T18:03:29.283Z,101714.78
2022-10-26T18:07:32.115Z,101730.97
2022-10-26T18:10:13.903Z,101726.88
2022-10-26T18:12:47.329Z,101734.63
2022-10-26T18:15:15.013Z,101729.53
2022-10-26T18:17:42.726Z,101738.53
2022-10-26T18:20:11.124Z,101735.88
2022-10-26T18:22:40.179Z,101751.06
2022-10-26T18:25:08.425Z,101752.19
2022-10-26T18:27:36.055Z,101758.66
2022-10-26T18:30:03.747Z,101758.94
2022-10-26T18:32:31.448Z,101767.63
2022-10-26T18:34:59.042Z,101764.97
2022-10-26T18:37:26.835Z,101765.41
2022-10-26T18:39:55.926Z,101774.25
2022-10-26T18:42:23.601Z,101764.56
2022-10-26T18:44:51.332Z,101777.75
2022-10-26T18:47:19.127Z,101786.75
2022-10-26T18:49:46.773Z,101786.75
2022-10-26T18:52:14.407Z,101788.72
2022-10-26T18:54:42.177Z,101783.50
2022-10-26T18:57:11.162Z,101799.53
2022-10-26T18:59:38.826Z,101789.00
2022-10-26T19:04:34.013Z,101795.47
2022-10-26T19:07:01.676Z,101799.97
2022-10-26T19:09:29.382Z,101803.63
2022-10-26T19:11:59.006Z,101805.56
2022-10-26T19:14:30.523Z,101808.38
2022-10-26T19:16:58.254Z,101808.66
2022-10-26T19:19:26.073Z,101811.47
2022-10-26T19:21:53.967Z,101815.09
2022-10-26T19:24:23.714Z,101814.50
2022-10-26T19:26:52.139Z,101821.69
2022-10-26T19:29:20.687Z,101815.66
2022-10-26T19:31:52.660Z,101825.59
2022-10-26T19:34:20.587Z,101817.88
2022-10-26T19:36:48.459Z,101829.53
2022-10-26T19:39:16.864Z,101827.00
2022-10-26T19:41:45.583Z,101819.13
2022-10-26T19:44:14.573Z,101827.97
2022-10-26T19:46:43.255Z,101829.09
2022-10-26T19:49:13.562Z,101831.19
2022-10-26T19:51:41.225Z,101838.06
2022-10-26T19:54:08.923Z,101836.38
2022-10-26T19:56:37.839Z,101836.63
2022-10-26T19:59:05.851Z,101841.97
2022-10-26T20:01:33.741Z,101848.19
2022-10-26T20:04:03.096Z,101850.97
2022-10-26T20:06:32.216Z,101858.28
2022-10-26T20:09:00.250Z,101854.63
2022-10-26T20:11:28.073Z,101854.91
2022-10-26T20:13:56.494Z,101857.44
2022-10-26T20:16:24.388Z,101867.25
2022-10-26T20:18:52.045Z,101860.25
2022-10-26T20:21:19.658Z,101858.56
2022-10-26T20:23:48.843Z,101857.13
2022-10-26T20:26:19.550Z,101870.59
2022-10-26T20:28:47.919Z,101864.41
2022-10-26T20:31:15.847Z,101863.81
2022-10-26T20:33:43.656Z,101868.22
2022-10-26T20:36:11.313Z,101864.94
2022-10-26T20:38:40.148Z,101875.63
2022-10-26T20:41:11.730Z,101876.47
2022-10-26T20:43:39.971Z,101882.91
2022-10-26T20:46:08.355Z,101885.72
2022-10-26T20:48:38.536Z,101888.41
2022-10-26T20:51:08.417Z,101882.31
2022-10-26T20:53:37.256Z,101895.56
2022-10-26T20:56:07.879Z,101904.50
2022-10-26T20:58:40.890Z,101895.56
2022-10-26T21:01:13.568Z,101900.16
2022-10-26T21:03:41.238Z,101909.13
2022-10-26T21:06:11.250Z,101912.78
2022-10-26T21:08:38.984Z,101908.44
2022-10-26T21:11:06.940Z,101904.06
2022-10-26T21:13:34.595Z,101907.81
2022-10-26T21:16:06.148Z,101911.34
2022-10-26T21:18:33.859Z,101917.66
2022-10-26T21:21:01.839Z,101915.13
2022-10-26T21:23:32.592Z,101913.44
2022-10-26T21:26:00.650Z,101917.22
2022-10-26T21:28:33.282Z,101917.34
2022-10-26T21:31:02.601Z,101915.78
2022-10-26T21:33:32.235Z,101912.41
2022-10-26T21:36:00.043Z,101919.44
2022-10-26T21:38:27.928Z,101915.31
2022-10-26T21:41:03.611Z,101920.41
2022-10-26T21:43:31.435Z,101924.06
2022-10-26T21:45:59.413Z,101931.31
2022-10-26T21:48:27.707Z,101924.31
2022-10-26T21:50:57.134Z,101921.63
2022-10-26T21:53:24.891Z,101925.16
2022-10-26T21:56:00.423Z,101922.88
2022-10-26T21:58:28.121Z,101921.78
2022-10-26T22:00:55.870Z,101922.63
2022-10-26T22:03:23.634Z,101920.94
2022-10-26T22:05:54.124Z,101923.47
2022-10-26T22:08:23.152Z,101934.97
2022-10-26T22:10:50.919Z,101926.25
2022-10-26T22:13:18.666Z,101927.81
2022-10-26T22:15:46.306Z,101932.31
2022-10-26T22:18:13.941Z,101933.41
2022-10-26T22:20:41.591Z,101931.59
2022-10-26T22:23:10.257Z,101927.25
2022-10-26T22:25:39.399Z,101936.22
2022-10-26T22:28:07.026Z,101926.53
2022-10-26T22:30:37.565Z,101924.84
2022-10-26T22:33:05.290Z,101929.19
2022-10-26T22:35:32.971Z,101932.84
2022-10-26T22:38:00.602Z,101939.13
2022-10-26T22:40:28.327Z,101932.09
2022-10-26T22:42:57.371Z,101934.06
2022-10-26T22:45:25.103Z,101931.53
2022-10-26T22:47:52.754Z,101935.88
2022-10-26T22:50:20.371Z,101927.31
2022-10-26T22:52:48.186Z,101931.78
2022-10-26T22:55:16.187Z,101925.59
2022-10-26T22:57:43.814Z,101932.06
2022-10-26T23:00:14.543Z,101934.16
2022-10-26T23:02:42.154Z,101949.16
2022-10-26T23:05:10.270Z,101944.81
2022-10-26T23:07:37.914Z,101944.91
2022-10-26T23:10:06.256Z,101944.06
2022-10-26T23:12:33.918Z,101948.56
2022-10-26T23:15:01.577Z,101946.03
2022-10-26T23:17:30.842Z,101951.34
2022-10-26T23:19:58.566Z,101954.00
2022-10-26T23:22:26.255Z,101958.63
2022-10-26T23:24:53.903Z,101957.78
2022-10-26T23:27:21.545Z,101960.47
2022-10-26T23:29:49.168Z,101969.53
2022-10-26T23:32:16.809Z,101967.84
2022-10-26T23:34:45.859Z,101960.09
2022-10-26T23:37:13.514Z,101960.78
2022-10-26T23:39:41.166Z,101966.13
2022-10-26T23:42:08.832Z,101970.59
2022-10-26T23:44:36.512Z,101962.75
2022-10-26T23:47:04.194Z,101971.72
2022-10-26T23:49:32.269Z,101971.72
2022-10-26T23:52:01.309Z,101984.31
2022-10-26T23:54:28.950Z,101981.91
2022-10-26T23:56:56.580Z,101977.41
2022-10-26T23:59:24.221Z,101979.38
